<?xml version="1.0" encoding="UTF-8"?><gpx xmlns="http://www.topografix.com/GPX/1/1" version="1.1" creator="iOrient"><trk><name>Старый Новый год трейл (Online)</name><trkseg><trkpt lat="56.2898176" lon="44.0162975"><time>2023-02-18T11:26:39.727</time></trkpt><trkpt lat="56.2897947" lon="44.0163186"><time>2023-02-18T11:26:40.707</time></trkpt><trkpt lat="56.2897354" lon="44.0163744"><time>2023-02-18T11:26:42.803</time></trkpt><trkpt lat="56.2896572" lon="44.0164408"><time>2023-02-18T11:26:44.707</time></trkpt><trkpt lat="56.2895897" lon="44.0165004"><time>2023-02-18T11:26:46.707</time></trkpt><trkpt lat="56.2895339" lon="44.0165478"><time>2023-02-18T11:26:48.707</time></trkpt><trkpt lat="56.2894833" lon="44.0165956"><time>2023-02-18T11:26:50.700</time></trkpt><trkpt lat="56.2894235" lon="44.0166461"><time>2023-02-18T11:26:52.720</time></trkpt><trkpt lat="56.2893680" lon="44.0166982"><time>2023-02-18T11:26:54.703</time></trkpt><trkpt lat="56.2893204" lon="44.0167711"><time>2023-02-18T11:26:56.710</time></trkpt><trkpt lat="56.2892734" lon="44.0168374"><time>2023-02-18T11:26:58.697</time></trkpt><trkpt lat="56.2892231" lon="44.0169020"><time>2023-02-18T11:27:00.713</time></trkpt><trkpt lat="56.2891935" lon="44.0169343"><time>2023-02-18T11:27:01.707</time></trkpt><trkpt lat="56.2891357" lon="44.0169977"><time>2023-02-18T11:27:03.707</time></trkpt><trkpt lat="56.2890880" lon="44.0170706"><time>2023-02-18T11:27:05.703</time></trkpt><trkpt lat="56.2890452" lon="44.0171438"><time>2023-02-18T11:27:07.710</time></trkpt><trkpt lat="56.2890015" lon="44.0172323"><time>2023-02-18T11:27:09.707</time></trkpt><trkpt lat="56.2889594" lon="44.0173181"><time>2023-02-18T11:27:11.713</time></trkpt><trkpt lat="56.2889184" lon="44.0174002"><time>2023-02-18T11:27:13.720</time></trkpt><trkpt lat="56.2888953" lon="44.0174356"><time>2023-02-18T11:27:14.713</time></trkpt><trkpt lat="56.2888407" lon="44.0174920"><time>2023-02-18T11:27:16.723</time></trkpt><trkpt lat="56.2887773" lon="44.0175244"><time>2023-02-18T11:27:18.710</time></trkpt><trkpt lat="56.2887220" lon="44.0175570"><time>2023-02-18T11:27:20.713</time></trkpt><trkpt lat="56.2886673" lon="44.0175900"><time>2023-02-18T11:27:22.707</time></trkpt><trkpt lat="56.2886115" lon="44.0176321"><time>2023-02-18T11:27:24.720</time></trkpt><trkpt lat="56.2885562" lon="44.0176711"><time>2023-02-18T11:27:26.713</time></trkpt><trkpt lat="56.2885018" lon="44.0177016"><time>2023-02-18T11:27:28.713</time></trkpt><trkpt lat="56.2884479" lon="44.0177382"><time>2023-02-18T11:27:30.703</time></trkpt><trkpt lat="56.2883930" lon="44.0177752"><time>2023-02-18T11:27:32.713</time></trkpt><trkpt lat="56.2883332" lon="44.0178099"><time>2023-02-18T11:27:34.710</time></trkpt><trkpt lat="56.2882734" lon="44.0178500"><time>2023-02-18T11:27:36.710</time></trkpt><trkpt lat="56.2882167" lon="44.0178898"><time>2023-02-18T11:27:38.717</time></trkpt><trkpt lat="56.2881879" lon="44.0179075"><time>2023-02-18T11:27:39.710</time></trkpt><trkpt lat="56.2881285" lon="44.0179459"><time>2023-02-18T11:27:41.710</time></trkpt><trkpt lat="56.2880696" lon="44.0179838"><time>2023-02-18T11:27:43.707</time></trkpt><trkpt lat="56.2880098" lon="44.0180279"><time>2023-02-18T11:27:45.710</time></trkpt><trkpt lat="56.2879544" lon="44.0180711"><time>2023-02-18T11:27:47.713</time></trkpt><trkpt lat="56.2879046" lon="44.0181206"><time>2023-02-18T11:27:49.707</time></trkpt><trkpt lat="56.2878444" lon="44.0181619"><time>2023-02-18T11:27:51.703</time></trkpt><trkpt lat="56.2877854" lon="44.0181985"><time>2023-02-18T11:27:53.720</time></trkpt><trkpt lat="56.2877582" lon="44.0182212"><time>2023-02-18T11:27:54.700</time></trkpt><trkpt lat="56.2877004" lon="44.0182660"><time>2023-02-18T11:27:56.703</time></trkpt><trkpt lat="56.2876468" lon="44.0183102"><time>2023-02-18T11:27:58.703</time></trkpt><trkpt lat="56.2875887" lon="44.0183504"><time>2023-02-18T11:28:00.700</time></trkpt><trkpt lat="56.2875339" lon="44.0183927"><time>2023-02-18T11:28:02.717</time></trkpt><trkpt lat="56.2874815" lon="44.0184294"><time>2023-02-18T11:28:04.703</time></trkpt><trkpt lat="56.2874201" lon="44.0184505"><time>2023-02-18T11:28:06.727</time></trkpt><trkpt lat="56.2874201" lon="44.0184505"><time>2023-02-18T11:28:06.763</time></trkpt><trkpt lat="56.2873627" lon="44.0184455"><time>2023-02-18T11:28:08.717</time></trkpt><trkpt lat="56.2873436" lon="44.0184314"><time>2023-02-18T11:28:09.697</time></trkpt><trkpt lat="56.2873505" lon="44.0183041"><time>2023-02-18T11:28:12.697</time></trkpt><trkpt lat="56.2873938" lon="44.0182139"><time>2023-02-18T11:28:14.710</time></trkpt><trkpt lat="56.2874347" lon="44.0181351"><time>2023-02-18T11:28:16.710</time></trkpt><trkpt lat="56.2874590" lon="44.0180388"><time>2023-02-18T11:28:18.707</time></trkpt><trkpt lat="56.2874646" lon="44.0179406"><time>2023-02-18T11:28:20.763</time></trkpt><trkpt lat="56.2874662" lon="44.0178392"><time>2023-02-18T11:28:22.710</time></trkpt><trkpt lat="56.2874612" lon="44.0177126"><time>2023-02-18T11:28:24.713</time></trkpt><trkpt lat="56.2874593" lon="44.0176187"><time>2023-02-18T11:28:26.717</time></trkpt><trkpt lat="56.2874403" lon="44.0175078"><time>2023-02-18T11:28:28.713</time></trkpt><trkpt lat="56.2874232" lon="44.0174066"><time>2023-02-18T11:28:30.697</time></trkpt><trkpt lat="56.2873979" lon="44.0173125"><time>2023-02-18T11:28:32.713</time></trkpt><trkpt lat="56.2873753" lon="44.0172248"><time>2023-02-18T11:28:34.713</time></trkpt><trkpt lat="56.2873580" lon="44.0171204"><time>2023-02-18T11:28:36.710</time></trkpt><trkpt lat="56.2873411" lon="44.0170419"><time>2023-02-18T11:28:38.700</time></trkpt><trkpt lat="56.2873061" lon="44.0169631"><time>2023-02-18T11:28:40.713</time></trkpt><trkpt lat="56.2872700" lon="44.0168930"><time>2023-02-18T11:28:42.707</time></trkpt><trkpt lat="56.2872260" lon="44.0168123"><time>2023-02-18T11:28:44.707</time></trkpt><trkpt lat="56.2871868" lon="44.0167628"><time>2023-02-18T11:28:46.710</time></trkpt><trkpt lat="56.2871387" lon="44.0167107"><time>2023-02-18T11:28:48.707</time></trkpt><trkpt lat="56.2870869" lon="44.0166829"><time>2023-02-18T11:28:50.733</time></trkpt><trkpt lat="56.2870446" lon="44.0166550"><time>2023-02-18T11:28:52.763</time></trkpt><trkpt lat="56.2869958" lon="44.0166170"><time>2023-02-18T11:28:54.703</time></trkpt><trkpt lat="56.2869368" lon="44.0165756"><time>2023-02-18T11:28:56.700</time></trkpt><trkpt lat="56.2868750" lon="44.0165287"><time>2023-02-18T11:28:58.707</time></trkpt><trkpt lat="56.2868113" lon="44.0164889"><time>2023-02-18T11:29:00.710</time></trkpt><trkpt lat="56.2867421" lon="44.0164468"><time>2023-02-18T11:29:02.710</time></trkpt><trkpt lat="56.2866759" lon="44.0164078"><time>2023-02-18T11:29:04.710</time></trkpt><trkpt lat="56.2866138" lon="44.0163591"><time>2023-02-18T11:29:06.700</time></trkpt><trkpt lat="56.2865566" lon="44.0163239"><time>2023-02-18T11:29:08.717</time></trkpt><trkpt lat="56.2864903" lon="44.0162670"><time>2023-02-18T11:29:10.700</time></trkpt><trkpt lat="56.2864353" lon="44.0162104"><time>2023-02-18T11:29:12.713</time></trkpt><trkpt lat="56.2863837" lon="44.0161722"><time>2023-02-18T11:29:14.763</time></trkpt><trkpt lat="56.2863323" lon="44.0161226"><time>2023-02-18T11:29:16.713</time></trkpt><trkpt lat="56.2862737" lon="44.0160642"><time>2023-02-18T11:29:18.707</time></trkpt><trkpt lat="56.2862172" lon="44.0160174"><time>2023-02-18T11:29:20.697</time></trkpt><trkpt lat="56.2861445" lon="44.0159430"><time>2023-02-18T11:29:22.710</time></trkpt><trkpt lat="56.2860865" lon="44.0158830"><time>2023-02-18T11:29:24.707</time></trkpt><trkpt lat="56.2860153" lon="44.0157955"><time>2023-02-18T11:29:26.707</time></trkpt><trkpt lat="56.2859532" lon="44.0157273"><time>2023-02-18T11:29:28.707</time></trkpt><trkpt lat="56.2859016" lon="44.0156954"><time>2023-02-18T11:29:30.707</time></trkpt><trkpt lat="56.2858420" lon="44.0156169"><time>2023-02-18T11:29:32.717</time></trkpt><trkpt lat="56.2857744" lon="44.0155529"><time>2023-02-18T11:29:34.710</time></trkpt><trkpt lat="56.2857093" lon="44.0155152"><time>2023-02-18T11:29:36.707</time></trkpt><trkpt lat="56.2856431" lon="44.0155009"><time>2023-02-18T11:29:38.703</time></trkpt><trkpt lat="56.2855744" lon="44.0154858"><time>2023-02-18T11:29:41.713</time></trkpt><trkpt lat="56.2855225" lon="44.0154602"><time>2023-02-18T11:29:43.707</time></trkpt><trkpt lat="56.2854685" lon="44.0154433"><time>2023-02-18T11:29:45.700</time></trkpt><trkpt lat="56.2854098" lon="44.0154191"><time>2023-02-18T11:29:47.707</time></trkpt><trkpt lat="56.2853472" lon="44.0153764"><time>2023-02-18T11:29:49.707</time></trkpt><trkpt lat="56.2852840" lon="44.0153516"><time>2023-02-18T11:29:51.703</time></trkpt><trkpt lat="56.2852242" lon="44.0153203"><time>2023-02-18T11:29:53.700</time></trkpt><trkpt lat="56.2851635" lon="44.0153056"><time>2023-02-18T11:29:55.693</time></trkpt><trkpt lat="56.2851058" lon="44.0153136"><time>2023-02-18T11:29:57.710</time></trkpt><trkpt lat="56.2850515" lon="44.0153419"><time>2023-02-18T11:29:59.693</time></trkpt><trkpt lat="56.2849858" lon="44.0153375"><time>2023-02-18T11:30:01.703</time></trkpt><trkpt lat="56.2849184" lon="44.0153223"><time>2023-02-18T11:30:03.693</time></trkpt><trkpt lat="56.2848458" lon="44.0153337"><time>2023-02-18T11:30:05.693</time></trkpt><trkpt lat="56.2847762" lon="44.0153952"><time>2023-02-18T11:30:07.690</time></trkpt><trkpt lat="56.2847283" lon="44.0154875"><time>2023-02-18T11:30:09.697</time></trkpt><trkpt lat="56.2846796" lon="44.0155722"><time>2023-02-18T11:30:11.700</time></trkpt><trkpt lat="56.2846223" lon="44.0156466"><time>2023-02-18T11:30:13.700</time></trkpt><trkpt lat="56.2845621" lon="44.0157177"><time>2023-02-18T11:30:15.713</time></trkpt><trkpt lat="56.2845106" lon="44.0158137"><time>2023-02-18T11:30:17.727</time></trkpt><trkpt lat="56.2844727" lon="44.0159061"><time>2023-02-18T11:30:19.707</time></trkpt><trkpt lat="56.2844396" lon="44.0160059"><time>2023-02-18T11:30:21.697</time></trkpt><trkpt lat="56.2844148" lon="44.0160992"><time>2023-02-18T11:30:23.707</time></trkpt><trkpt lat="56.2843956" lon="44.0162052"><time>2023-02-18T11:30:25.747</time></trkpt><trkpt lat="56.2843776" lon="44.0163190"><time>2023-02-18T11:30:27.703</time></trkpt><trkpt lat="56.2843744" lon="44.0164394"><time>2023-02-18T11:30:29.703</time></trkpt><trkpt lat="56.2843692" lon="44.0165782"><time>2023-02-18T11:30:31.700</time></trkpt><trkpt lat="56.2843530" lon="44.0167086"><time>2023-02-18T11:30:33.710</time></trkpt><trkpt lat="56.2843252" lon="44.0168235"><time>2023-02-18T11:30:35.757</time></trkpt><trkpt lat="56.2842871" lon="44.0169352"><time>2023-02-18T11:30:37.763</time></trkpt><trkpt lat="56.2842369" lon="44.0170285"><time>2023-02-18T11:30:39.717</time></trkpt><trkpt lat="56.2841929" lon="44.0171349"><time>2023-02-18T11:30:41.717</time></trkpt><trkpt lat="56.2841563" lon="44.0172263"><time>2023-02-18T11:30:43.710</time></trkpt><trkpt lat="56.2841180" lon="44.0173351"><time>2023-02-18T11:30:45.713</time></trkpt><trkpt lat="56.2840728" lon="44.0174180"><time>2023-02-18T11:30:47.717</time></trkpt><trkpt lat="56.2840050" lon="44.0174806"><time>2023-02-18T11:30:49.707</time></trkpt><trkpt lat="56.2839325" lon="44.0175207"><time>2023-02-18T11:30:51.713</time></trkpt><trkpt lat="56.2838631" lon="44.0175565"><time>2023-02-18T11:30:53.707</time></trkpt><trkpt lat="56.2837755" lon="44.0175876"><time>2023-02-18T11:30:55.700</time></trkpt><trkpt lat="56.2836954" lon="44.0176133"><time>2023-02-18T11:30:57.703</time></trkpt><trkpt lat="56.2836209" lon="44.0176233"><time>2023-02-18T11:30:59.700</time></trkpt><trkpt lat="56.2835449" lon="44.0176256"><time>2023-02-18T11:31:01.697</time></trkpt><trkpt lat="56.2834699" lon="44.0176643"><time>2023-02-18T11:31:03.710</time></trkpt><trkpt lat="56.2834075" lon="44.0177282"><time>2023-02-18T11:31:05.700</time></trkpt><trkpt lat="56.2833418" lon="44.0177791"><time>2023-02-18T11:31:07.707</time></trkpt><trkpt lat="56.2832736" lon="44.0178236"><time>2023-02-18T11:31:09.700</time></trkpt><trkpt lat="56.2832087" lon="44.0178927"><time>2023-02-18T11:31:11.780</time></trkpt><trkpt lat="56.2831446" lon="44.0179438"><time>2023-02-18T11:31:13.703</time></trkpt><trkpt lat="56.2830806" lon="44.0179901"><time>2023-02-18T11:31:15.697</time></trkpt><trkpt lat="56.2830038" lon="44.0180409"><time>2023-02-18T11:31:17.700</time></trkpt><trkpt lat="56.2829197" lon="44.0180846"><time>2023-02-18T11:31:19.707</time></trkpt><trkpt lat="56.2828486" lon="44.0181465"><time>2023-02-18T11:31:21.707</time></trkpt><trkpt lat="56.2827858" lon="44.0182097"><time>2023-02-18T11:31:23.697</time></trkpt><trkpt lat="56.2827238" lon="44.0182721"><time>2023-02-18T11:31:25.697</time></trkpt><trkpt lat="56.2826617" lon="44.0183335"><time>2023-02-18T11:31:27.717</time></trkpt><trkpt lat="56.2826010" lon="44.0183999"><time>2023-02-18T11:31:29.710</time></trkpt><trkpt lat="56.2825377" lon="44.0184613"><time>2023-02-18T11:31:31.713</time></trkpt><trkpt lat="56.2824769" lon="44.0185212"><time>2023-02-18T11:31:33.747</time></trkpt><trkpt lat="56.2824190" lon="44.0185875"><time>2023-02-18T11:31:35.773</time></trkpt><trkpt lat="56.2823484" lon="44.0186162"><time>2023-02-18T11:31:37.723</time></trkpt><trkpt lat="56.2822793" lon="44.0186272"><time>2023-02-18T11:31:39.700</time></trkpt><trkpt lat="56.2822136" lon="44.0186519"><time>2023-02-18T11:31:41.700</time></trkpt><trkpt lat="56.2821635" lon="44.0186859"><time>2023-02-18T11:31:43.703</time></trkpt><trkpt lat="56.2821078" lon="44.0186954"><time>2023-02-18T11:31:45.710</time></trkpt><trkpt lat="56.2820528" lon="44.0187277"><time>2023-02-18T11:31:47.697</time></trkpt><trkpt lat="56.2819880" lon="44.0187491"><time>2023-02-18T11:31:49.693</time></trkpt><trkpt lat="56.2819339" lon="44.0187760"><time>2023-02-18T11:31:51.797</time></trkpt><trkpt lat="56.2818782" lon="44.0188108"><time>2023-02-18T11:31:53.740</time></trkpt><trkpt lat="56.2818236" lon="44.0188341"><time>2023-02-18T11:31:55.707</time></trkpt><trkpt lat="56.2817725" lon="44.0188156"><time>2023-02-18T11:31:57.707</time></trkpt><trkpt lat="56.2817337" lon="44.0187690"><time>2023-02-18T11:31:59.697</time></trkpt><trkpt lat="56.2816945" lon="44.0187109"><time>2023-02-18T11:32:01.703</time></trkpt><trkpt lat="56.2816531" lon="44.0186599"><time>2023-02-18T11:32:03.703</time></trkpt><trkpt lat="56.2816118" lon="44.0186028"><time>2023-02-18T11:32:05.697</time></trkpt><trkpt lat="56.2815735" lon="44.0185477"><time>2023-02-18T11:32:07.707</time></trkpt><trkpt lat="56.2815442" lon="44.0184670"><time>2023-02-18T11:32:09.707</time></trkpt><trkpt lat="56.2815019" lon="44.0184137"><time>2023-02-18T11:32:11.703</time></trkpt><trkpt lat="56.2814623" lon="44.0183585"><time>2023-02-18T11:32:13.753</time></trkpt><trkpt lat="56.2814137" lon="44.0183053"><time>2023-02-18T11:32:15.707</time></trkpt><trkpt lat="56.2813633" lon="44.0182826"><time>2023-02-18T11:32:17.707</time></trkpt><trkpt lat="56.2812997" lon="44.0182415"><time>2023-02-18T11:32:20.707</time></trkpt><trkpt lat="56.2812561" lon="44.0181841"><time>2023-02-18T11:32:22.707</time></trkpt><trkpt lat="56.2812035" lon="44.0181183"><time>2023-02-18T11:32:24.763</time></trkpt><trkpt lat="56.2811657" lon="44.0180242"><time>2023-02-18T11:32:26.707</time></trkpt><trkpt lat="56.2811205" lon="44.0179410"><time>2023-02-18T11:32:28.717</time></trkpt><trkpt lat="56.2810864" lon="44.0178660"><time>2023-02-18T11:32:30.713</time></trkpt><trkpt lat="56.2810524" lon="44.0178020"><time>2023-02-18T11:32:32.713</time></trkpt><trkpt lat="56.2810249" lon="44.0177281"><time>2023-02-18T11:32:34.717</time></trkpt><trkpt lat="56.2810030" lon="44.0176532"><time>2023-02-18T11:32:36.757</time></trkpt><trkpt lat="56.2809881" lon="44.0175320"><time>2023-02-18T11:32:39.763</time></trkpt><trkpt lat="56.2809688" lon="44.0174162"><time>2023-02-18T11:32:41.717</time></trkpt><trkpt lat="56.2809542" lon="44.0173111"><time>2023-02-18T11:32:43.770</time></trkpt><trkpt lat="56.2809441" lon="44.0172127"><time>2023-02-18T11:32:45.737</time></trkpt><trkpt lat="56.2809293" lon="44.0171180"><time>2023-02-18T11:32:47.747</time></trkpt><trkpt lat="56.2809161" lon="44.0170281"><time>2023-02-18T11:32:49.743</time></trkpt><trkpt lat="56.2809007" lon="44.0169168"><time>2023-02-18T11:32:51.753</time></trkpt><trkpt lat="56.2808749" lon="44.0168279"><time>2023-02-18T11:32:53.767</time></trkpt><trkpt lat="56.2808442" lon="44.0167474"><time>2023-02-18T11:32:55.707</time></trkpt><trkpt lat="56.2808107" lon="44.0166425"><time>2023-02-18T11:32:57.707</time></trkpt><trkpt lat="56.2807709" lon="44.0165336"><time>2023-02-18T11:32:59.693</time></trkpt><trkpt lat="56.2807232" lon="44.0164478"><time>2023-02-18T11:33:01.740</time></trkpt><trkpt lat="56.2806834" lon="44.0163701"><time>2023-02-18T11:33:03.723</time></trkpt><trkpt lat="56.2806307" lon="44.0162373"><time>2023-02-18T11:33:05.720</time></trkpt><trkpt lat="56.2805872" lon="44.0161492"><time>2023-02-18T11:33:07.713</time></trkpt><trkpt lat="56.2805359" lon="44.0160610"><time>2023-02-18T11:33:09.717</time></trkpt><trkpt lat="56.2804906" lon="44.0159932"><time>2023-02-18T11:33:11.717</time></trkpt><trkpt lat="56.2804571" lon="44.0159018"><time>2023-02-18T11:33:13.707</time></trkpt><trkpt lat="56.2804190" lon="44.0158344"><time>2023-02-18T11:33:15.717</time></trkpt><trkpt lat="56.2803848" lon="44.0157768"><time>2023-02-18T11:33:17.753</time></trkpt><trkpt lat="56.2803373" lon="44.0156738"><time>2023-02-18T11:33:19.773</time></trkpt><trkpt lat="56.2802902" lon="44.0155842"><time>2023-02-18T11:33:21.717</time></trkpt><trkpt lat="56.2802392" lon="44.0155068"><time>2023-02-18T11:33:23.707</time></trkpt><trkpt lat="56.2801874" lon="44.0154430"><time>2023-02-18T11:33:25.700</time></trkpt><trkpt lat="56.2801319" lon="44.0153523"><time>2023-02-18T11:33:27.713</time></trkpt><trkpt lat="56.2800874" lon="44.0152841"><time>2023-02-18T11:33:29.700</time></trkpt><trkpt lat="56.2800519" lon="44.0152295"><time>2023-02-18T11:33:31.757</time></trkpt><trkpt lat="56.2800099" lon="44.0151520"><time>2023-02-18T11:33:33.783</time></trkpt><trkpt lat="56.2799697" lon="44.0150767"><time>2023-02-18T11:33:35.713</time></trkpt><trkpt lat="56.2799200" lon="44.0149983"><time>2023-02-18T11:33:37.707</time></trkpt><trkpt lat="56.2798605" lon="44.0149325"><time>2023-02-18T11:33:39.707</time></trkpt><trkpt lat="56.2798096" lon="44.0149160"><time>2023-02-18T11:33:41.710</time></trkpt><trkpt lat="56.2797606" lon="44.0148823"><time>2023-02-18T11:33:43.717</time></trkpt><trkpt lat="56.2797080" lon="44.0148394"><time>2023-02-18T11:33:45.707</time></trkpt><trkpt lat="56.2796539" lon="44.0147617"><time>2023-02-18T11:33:47.707</time></trkpt><trkpt lat="56.2795839" lon="44.0146731"><time>2023-02-18T11:33:49.713</time></trkpt><trkpt lat="56.2795214" lon="44.0146080"><time>2023-02-18T11:33:51.717</time></trkpt><trkpt lat="56.2794600" lon="44.0145868"><time>2023-02-18T11:33:53.717</time></trkpt><trkpt lat="56.2793977" lon="44.0145861"><time>2023-02-18T11:33:55.710</time></trkpt><trkpt lat="56.2793278" lon="44.0145977"><time>2023-02-18T11:33:57.700</time></trkpt><trkpt lat="56.2792661" lon="44.0145828"><time>2023-02-18T11:33:59.707</time></trkpt><trkpt lat="56.2792088" lon="44.0145961"><time>2023-02-18T11:34:01.703</time></trkpt><trkpt lat="56.2791433" lon="44.0145908"><time>2023-02-18T11:34:03.710</time></trkpt><trkpt lat="56.2790735" lon="44.0145931"><time>2023-02-18T11:34:05.763</time></trkpt><trkpt lat="56.2790109" lon="44.0145787"><time>2023-02-18T11:34:07.710</time></trkpt><trkpt lat="56.2789623" lon="44.0144973"><time>2023-02-18T11:34:09.703</time></trkpt><trkpt lat="56.2789481" lon="44.0143692"><time>2023-02-18T11:34:11.713</time></trkpt><trkpt lat="56.2789378" lon="44.0142499"><time>2023-02-18T11:34:13.713</time></trkpt><trkpt lat="56.2789072" lon="44.0141312"><time>2023-02-18T11:34:15.710</time></trkpt><trkpt lat="56.2788779" lon="44.0140052"><time>2023-02-18T11:34:17.750</time></trkpt><trkpt lat="56.2788672" lon="44.0138870"><time>2023-02-18T11:34:19.763</time></trkpt><trkpt lat="56.2788647" lon="44.0138177"><time>2023-02-18T11:34:20.783</time></trkpt><trkpt lat="56.2788678" lon="44.0136579"><time>2023-02-18T11:34:22.703</time></trkpt><trkpt lat="56.2788658" lon="44.0135113"><time>2023-02-18T11:34:24.703</time></trkpt><trkpt lat="56.2788576" lon="44.0133853"><time>2023-02-18T11:34:26.707</time></trkpt><trkpt lat="56.2788555" lon="44.0132608"><time>2023-02-18T11:34:28.737</time></trkpt><trkpt lat="56.2788559" lon="44.0131162"><time>2023-02-18T11:34:30.757</time></trkpt><trkpt lat="56.2788432" lon="44.0129952"><time>2023-02-18T11:34:32.733</time></trkpt><trkpt lat="56.2788329" lon="44.0128713"><time>2023-02-18T11:34:34.710</time></trkpt><trkpt lat="56.2788251" lon="44.0127499"><time>2023-02-18T11:34:36.703</time></trkpt><trkpt lat="56.2788131" lon="44.0126238"><time>2023-02-18T11:34:38.767</time></trkpt><trkpt lat="56.2788001" lon="44.0125038"><time>2023-02-18T11:34:40.770</time></trkpt><trkpt lat="56.2787858" lon="44.0123919"><time>2023-02-18T11:34:42.720</time></trkpt><trkpt lat="56.2787749" lon="44.0123106"><time>2023-02-18T11:34:43.707</time></trkpt><trkpt lat="56.2787687" lon="44.0122245"><time>2023-02-18T11:34:44.717</time></trkpt><trkpt lat="56.2788228" lon="44.0121316"><time>2023-02-18T11:34:46.767</time></trkpt><trkpt lat="56.2788695" lon="44.0120720"><time>2023-02-18T11:34:48.743</time></trkpt><trkpt lat="56.2789161" lon="44.0120135"><time>2023-02-18T11:34:50.713</time></trkpt><trkpt lat="56.2789692" lon="44.0119619"><time>2023-02-18T11:34:52.800</time></trkpt><trkpt lat="56.2790307" lon="44.0119214"><time>2023-02-18T11:34:54.757</time></trkpt><trkpt lat="56.2790814" lon="44.0118789"><time>2023-02-18T11:34:56.770</time></trkpt><trkpt lat="56.2791109" lon="44.0118743"><time>2023-02-18T11:34:57.750</time></trkpt><trkpt lat="56.2791747" lon="44.0118380"><time>2023-02-18T11:34:59.710</time></trkpt><trkpt lat="56.2792379" lon="44.0117980"><time>2023-02-18T11:35:01.707</time></trkpt><trkpt lat="56.2793044" lon="44.0117692"><time>2023-02-18T11:35:03.707</time></trkpt><trkpt lat="56.2793693" lon="44.0117142"><time>2023-02-18T11:35:05.727</time></trkpt><trkpt lat="56.2794345" lon="44.0116751"><time>2023-02-18T11:35:07.767</time></trkpt><trkpt lat="56.2794970" lon="44.0116330"><time>2023-02-18T11:35:09.717</time></trkpt><trkpt lat="56.2795279" lon="44.0116122"><time>2023-02-18T11:35:10.707</time></trkpt><trkpt lat="56.2795832" lon="44.0115681"><time>2023-02-18T11:35:12.697</time></trkpt><trkpt lat="56.2796433" lon="44.0115375"><time>2023-02-18T11:35:14.697</time></trkpt><trkpt lat="56.2796997" lon="44.0115054"><time>2023-02-18T11:35:16.707</time></trkpt><trkpt lat="56.2797592" lon="44.0114610"><time>2023-02-18T11:35:18.707</time></trkpt><trkpt lat="56.2798248" lon="44.0114118"><time>2023-02-18T11:35:20.717</time></trkpt><trkpt lat="56.2798839" lon="44.0113576"><time>2023-02-18T11:35:22.717</time></trkpt><trkpt lat="56.2798839" lon="44.0113576"><time>2023-02-18T11:35:22.747</time></trkpt><trkpt lat="56.2799399" lon="44.0113062"><time>2023-02-18T11:35:24.710</time></trkpt><trkpt lat="56.2799682" lon="44.0112869"><time>2023-02-18T11:35:25.697</time></trkpt><trkpt lat="56.2800238" lon="44.0112371"><time>2023-02-18T11:35:27.697</time></trkpt><trkpt lat="56.2800804" lon="44.0111899"><time>2023-02-18T11:35:29.707</time></trkpt><trkpt lat="56.2801296" lon="44.0111233"><time>2023-02-18T11:35:31.703</time></trkpt><trkpt lat="56.2801747" lon="44.0110353"><time>2023-02-18T11:35:33.733</time></trkpt><trkpt lat="56.2802229" lon="44.0109501"><time>2023-02-18T11:35:35.707</time></trkpt><trkpt lat="56.2802700" lon="44.0108563"><time>2023-02-18T11:35:37.707</time></trkpt><trkpt lat="56.2803209" lon="44.0107765"><time>2023-02-18T11:35:39.707</time></trkpt><trkpt lat="56.2803742" lon="44.0106865"><time>2023-02-18T11:35:41.747</time></trkpt><trkpt lat="56.2804273" lon="44.0105992"><time>2023-02-18T11:35:43.800</time></trkpt><trkpt lat="56.2804700" lon="44.0105112"><time>2023-02-18T11:35:45.713</time></trkpt><trkpt lat="56.2804608" lon="44.0104129"><time>2023-02-18T11:35:47.747</time></trkpt><trkpt lat="56.2804313" lon="44.0103410"><time>2023-02-18T11:35:49.753</time></trkpt><trkpt lat="56.2803838" lon="44.0103073"><time>2023-02-18T11:35:51.757</time></trkpt><trkpt lat="56.2803171" lon="44.0102917"><time>2023-02-18T11:35:53.707</time></trkpt><trkpt lat="56.2802506" lon="44.0102979"><time>2023-02-18T11:35:55.697</time></trkpt><trkpt lat="56.2801905" lon="44.0102775"><time>2023-02-18T11:35:57.710</time></trkpt><trkpt lat="56.2801508" lon="44.0101920"><time>2023-02-18T11:35:59.710</time></trkpt><trkpt lat="56.2801118" lon="44.0101138"><time>2023-02-18T11:36:01.710</time></trkpt><trkpt lat="56.2800805" lon="44.0100237"><time>2023-02-18T11:36:03.717</time></trkpt><trkpt lat="56.2800436" lon="44.0099157"><time>2023-02-18T11:36:05.710</time></trkpt><trkpt lat="56.2799978" lon="44.0098290"><time>2023-02-18T11:36:07.703</time></trkpt><trkpt lat="56.2799351" lon="44.0097534"><time>2023-02-18T11:36:09.743</time></trkpt><trkpt lat="56.2798711" lon="44.0097152"><time>2023-02-18T11:36:11.713</time></trkpt><trkpt lat="56.2798095" lon="44.0097249"><time>2023-02-18T11:36:13.710</time></trkpt><trkpt lat="56.2797517" lon="44.0097527"><time>2023-02-18T11:36:15.713</time></trkpt><trkpt lat="56.2796838" lon="44.0097855"><time>2023-02-18T11:36:17.713</time></trkpt><trkpt lat="56.2796100" lon="44.0098050"><time>2023-02-18T11:36:19.747</time></trkpt><trkpt lat="56.2795324" lon="44.0097902"><time>2023-02-18T11:36:21.707</time></trkpt><trkpt lat="56.2794635" lon="44.0097564"><time>2023-02-18T11:36:23.717</time></trkpt><trkpt lat="56.2793963" lon="44.0097431"><time>2023-02-18T11:36:25.707</time></trkpt><trkpt lat="56.2793333" lon="44.0097267"><time>2023-02-18T11:36:27.717</time></trkpt><trkpt lat="56.2792651" lon="44.0096956"><time>2023-02-18T11:36:29.710</time></trkpt><trkpt lat="56.2791967" lon="44.0096484"><time>2023-02-18T11:36:31.703</time></trkpt><trkpt lat="56.2791248" lon="44.0096226"><time>2023-02-18T11:36:33.713</time></trkpt><trkpt lat="56.2790532" lon="44.0095893"><time>2023-02-18T11:36:35.707</time></trkpt><trkpt lat="56.2789888" lon="44.0095845"><time>2023-02-18T11:36:37.703</time></trkpt><trkpt lat="56.2789210" lon="44.0096165"><time>2023-02-18T11:36:39.707</time></trkpt><trkpt lat="56.2788650" lon="44.0096802"><time>2023-02-18T11:36:41.703</time></trkpt><trkpt lat="56.2788045" lon="44.0097256"><time>2023-02-18T11:36:43.703</time></trkpt><trkpt lat="56.2787398" lon="44.0097532"><time>2023-02-18T11:36:45.710</time></trkpt><trkpt lat="56.2786730" lon="44.0097894"><time>2023-02-18T11:36:47.713</time></trkpt><trkpt lat="56.2786047" lon="44.0098027"><time>2023-02-18T11:36:49.713</time></trkpt><trkpt lat="56.2785372" lon="44.0098373"><time>2023-02-18T11:36:51.713</time></trkpt><trkpt lat="56.2784681" lon="44.0098655"><time>2023-02-18T11:36:53.703</time></trkpt><trkpt lat="56.2784024" lon="44.0099054"><time>2023-02-18T11:36:55.740</time></trkpt><trkpt lat="56.2783365" lon="44.0099533"><time>2023-02-18T11:36:57.703</time></trkpt><trkpt lat="56.2782683" lon="44.0099845"><time>2023-02-18T11:36:59.710</time></trkpt><trkpt lat="56.2782028" lon="44.0100343"><time>2023-02-18T11:37:01.763</time></trkpt><trkpt lat="56.2781381" lon="44.0100829"><time>2023-02-18T11:37:03.770</time></trkpt><trkpt lat="56.2780709" lon="44.0101195"><time>2023-02-18T11:37:05.753</time></trkpt><trkpt lat="56.2779978" lon="44.0101415"><time>2023-02-18T11:37:07.783</time></trkpt><trkpt lat="56.2779250" lon="44.0101470"><time>2023-02-18T11:37:09.777</time></trkpt><trkpt lat="56.2778541" lon="44.0101475"><time>2023-02-18T11:37:11.757</time></trkpt><trkpt lat="56.2777834" lon="44.0101353"><time>2023-02-18T11:37:13.793</time></trkpt><trkpt lat="56.2777127" lon="44.0101059"><time>2023-02-18T11:37:15.760</time></trkpt><trkpt lat="56.2776419" lon="44.0101258"><time>2023-02-18T11:37:17.763</time></trkpt><trkpt lat="56.2775889" lon="44.0101735"><time>2023-02-18T11:37:19.807</time></trkpt><trkpt lat="56.2775107" lon="44.0101992"><time>2023-02-18T11:37:21.767</time></trkpt><trkpt lat="56.2774329" lon="44.0102276"><time>2023-02-18T11:37:23.787</time></trkpt><trkpt lat="56.2773608" lon="44.0102719"><time>2023-02-18T11:37:25.707</time></trkpt><trkpt lat="56.2772949" lon="44.0103402"><time>2023-02-18T11:37:27.707</time></trkpt><trkpt lat="56.2772395" lon="44.0104277"><time>2023-02-18T11:37:29.703</time></trkpt><trkpt lat="56.2771998" lon="44.0105386"><time>2023-02-18T11:37:31.707</time></trkpt><trkpt lat="56.2771628" lon="44.0106421"><time>2023-02-18T11:37:33.707</time></trkpt><trkpt lat="56.2771274" lon="44.0107464"><time>2023-02-18T11:37:35.710</time></trkpt><trkpt lat="56.2770932" lon="44.0108636"><time>2023-02-18T11:37:37.707</time></trkpt><trkpt lat="56.2770758" lon="44.0109865"><time>2023-02-18T11:37:39.713</time></trkpt><trkpt lat="56.2770820" lon="44.0110887"><time>2023-02-18T11:37:41.703</time></trkpt><trkpt lat="56.2770757" lon="44.0111982"><time>2023-02-18T11:37:43.700</time></trkpt><trkpt lat="56.2770512" lon="44.0113112"><time>2023-02-18T11:37:45.750</time></trkpt><trkpt lat="56.2770240" lon="44.0114162"><time>2023-02-18T11:37:47.753</time></trkpt><trkpt lat="56.2769841" lon="44.0115155"><time>2023-02-18T11:37:49.777</time></trkpt><trkpt lat="56.2769239" lon="44.0115943"><time>2023-02-18T11:37:51.717</time></trkpt><trkpt lat="56.2768729" lon="44.0116747"><time>2023-02-18T11:37:53.747</time></trkpt><trkpt lat="56.2768168" lon="44.0117376"><time>2023-02-18T11:37:55.750</time></trkpt><trkpt lat="56.2767656" lon="44.0117988"><time>2023-02-18T11:37:57.707</time></trkpt><trkpt lat="56.2767218" lon="44.0118816"><time>2023-02-18T11:37:59.713</time></trkpt><trkpt lat="56.2766752" lon="44.0119749"><time>2023-02-18T11:38:01.703</time></trkpt><trkpt lat="56.2766219" lon="44.0120484"><time>2023-02-18T11:38:03.707</time></trkpt><trkpt lat="56.2765645" lon="44.0120958"><time>2023-02-18T11:38:05.703</time></trkpt><trkpt lat="56.2765034" lon="44.0121140"><time>2023-02-18T11:38:07.727</time></trkpt><trkpt lat="56.2764750" lon="44.0121059"><time>2023-02-18T11:38:08.713</time></trkpt><trkpt lat="56.2764182" lon="44.0120988"><time>2023-02-18T11:38:10.710</time></trkpt><trkpt lat="56.2763410" lon="44.0121079"><time>2023-02-18T11:38:12.703</time></trkpt><trkpt lat="56.2762664" lon="44.0121165"><time>2023-02-18T11:38:14.733</time></trkpt><trkpt lat="56.2761951" lon="44.0121673"><time>2023-02-18T11:38:16.707</time></trkpt><trkpt lat="56.2761218" lon="44.0122234"><time>2023-02-18T11:38:18.747</time></trkpt><trkpt lat="56.2760538" lon="44.0122881"><time>2023-02-18T11:38:20.717</time></trkpt><trkpt lat="56.2759878" lon="44.0123426"><time>2023-02-18T11:38:22.810</time></trkpt><trkpt lat="56.2759240" lon="44.0124135"><time>2023-02-18T11:38:25.373</time></trkpt><trkpt lat="56.2758604" lon="44.0124775"><time>2023-02-18T11:38:26.700</time></trkpt><trkpt lat="56.2758038" lon="44.0125442"><time>2023-02-18T11:38:28.710</time></trkpt><trkpt lat="56.2757480" lon="44.0126240"><time>2023-02-18T11:38:30.780</time></trkpt><trkpt lat="56.2756850" lon="44.0127004"><time>2023-02-18T11:38:32.790</time></trkpt><trkpt lat="56.2756552" lon="44.0127407"><time>2023-02-18T11:38:33.757</time></trkpt><trkpt lat="56.2755982" lon="44.0128054"><time>2023-02-18T11:38:35.707</time></trkpt><trkpt lat="56.2755346" lon="44.0128579"><time>2023-02-18T11:38:37.710</time></trkpt><trkpt lat="56.2754697" lon="44.0129075"><time>2023-02-18T11:38:39.713</time></trkpt><trkpt lat="56.2754013" lon="44.0129555"><time>2023-02-18T11:38:41.707</time></trkpt><trkpt lat="56.2753299" lon="44.0130203"><time>2023-02-18T11:38:43.707</time></trkpt><trkpt lat="56.2752698" lon="44.0131043"><time>2023-02-18T11:38:45.710</time></trkpt><trkpt lat="56.2752377" lon="44.0131433"><time>2023-02-18T11:38:46.707</time></trkpt><trkpt lat="56.2751785" lon="44.0132216"><time>2023-02-18T11:38:48.700</time></trkpt><trkpt lat="56.2751232" lon="44.0132991"><time>2023-02-18T11:38:50.703</time></trkpt><trkpt lat="56.2750729" lon="44.0133822"><time>2023-02-18T11:38:52.707</time></trkpt><trkpt lat="56.2750192" lon="44.0134544"><time>2023-02-18T11:38:54.707</time></trkpt><trkpt lat="56.2749561" lon="44.0135061"><time>2023-02-18T11:38:56.723</time></trkpt><trkpt lat="56.2749561" lon="44.0135061"><time>2023-02-18T11:38:56.750</time></trkpt><trkpt lat="56.2748913" lon="44.0135537"><time>2023-02-18T11:38:58.713</time></trkpt><trkpt lat="56.2748729" lon="44.0136023"><time>2023-02-18T11:38:59.707</time></trkpt><trkpt lat="56.2748988" lon="44.0137109"><time>2023-02-18T11:39:01.707</time></trkpt><trkpt lat="56.2749167" lon="44.0138190"><time>2023-02-18T11:39:03.700</time></trkpt><trkpt lat="56.2749302" lon="44.0139445"><time>2023-02-18T11:39:05.700</time></trkpt><trkpt lat="56.2749505" lon="44.0140585"><time>2023-02-18T11:39:07.703</time></trkpt><trkpt lat="56.2749952" lon="44.0141432"><time>2023-02-18T11:39:09.707</time></trkpt><trkpt lat="56.2750473" lon="44.0142169"><time>2023-02-18T11:39:11.723</time></trkpt><trkpt lat="56.2750964" lon="44.0142910"><time>2023-02-18T11:39:13.763</time></trkpt><trkpt lat="56.2751325" lon="44.0143808"><time>2023-02-18T11:39:15.707</time></trkpt><trkpt lat="56.2751507" lon="44.0144873"><time>2023-02-18T11:39:17.707</time></trkpt><trkpt lat="56.2751572" lon="44.0146015"><time>2023-02-18T11:39:19.707</time></trkpt><trkpt lat="56.2751688" lon="44.0147142"><time>2023-02-18T11:39:21.703</time></trkpt><trkpt lat="56.2751856" lon="44.0148427"><time>2023-02-18T11:39:23.703</time></trkpt><trkpt lat="56.2751967" lon="44.0149790"><time>2023-02-18T11:39:25.707</time></trkpt><trkpt lat="56.2752295" lon="44.0150899"><time>2023-02-18T11:39:27.713</time></trkpt><trkpt lat="56.2752738" lon="44.0151734"><time>2023-02-18T11:39:29.707</time></trkpt><trkpt lat="56.2753334" lon="44.0151809"><time>2023-02-18T11:39:31.707</time></trkpt><trkpt lat="56.2753838" lon="44.0151699"><time>2023-02-18T11:39:35.697</time></trkpt><trkpt lat="56.2754292" lon="44.0151974"><time>2023-02-18T11:39:40.713</time></trkpt><trkpt lat="56.2754719" lon="44.0152409"><time>2023-02-18T11:39:44.723</time></trkpt><trkpt lat="56.2755188" lon="44.0152833"><time>2023-02-18T11:39:48.787</time></trkpt><trkpt lat="56.2755638" lon="44.0153076"><time>2023-02-18T11:39:51.710</time></trkpt><trkpt lat="56.2756078" lon="44.0153353"><time>2023-02-18T11:39:54.730</time></trkpt><trkpt lat="56.2756567" lon="44.0153677"><time>2023-02-18T11:39:57.773</time></trkpt><trkpt lat="56.2757031" lon="44.0154400"><time>2023-02-18T11:40:00.720</time></trkpt><trkpt lat="56.2757410" lon="44.0154856"><time>2023-02-18T11:40:02.710</time></trkpt><trkpt lat="56.2758014" lon="44.0155253"><time>2023-02-18T11:40:05.713</time></trkpt><trkpt lat="56.2758583" lon="44.0155457"><time>2023-02-18T11:40:08.747</time></trkpt><trkpt lat="56.2759105" lon="44.0155584"><time>2023-02-18T11:40:10.837</time></trkpt><trkpt lat="56.2759780" lon="44.0155826"><time>2023-02-18T11:40:13.717</time></trkpt><trkpt lat="56.2760250" lon="44.0156176"><time>2023-02-18T11:40:15.753</time></trkpt><trkpt lat="56.2760673" lon="44.0156720"><time>2023-02-18T11:40:17.777</time></trkpt><trkpt lat="56.2761102" lon="44.0157239"><time>2023-02-18T11:40:19.777</time></trkpt><trkpt lat="56.2761484" lon="44.0157863"><time>2023-02-18T11:40:21.710</time></trkpt><trkpt lat="56.2761846" lon="44.0158577"><time>2023-02-18T11:40:23.700</time></trkpt><trkpt lat="56.2762268" lon="44.0159274"><time>2023-02-18T11:40:25.720</time></trkpt><trkpt lat="56.2762650" lon="44.0159990"><time>2023-02-18T11:40:27.703</time></trkpt><trkpt lat="56.2762992" lon="44.0160815"><time>2023-02-18T11:40:29.707</time></trkpt><trkpt lat="56.2763340" lon="44.0161606"><time>2023-02-18T11:40:31.720</time></trkpt><trkpt lat="56.2763685" lon="44.0162476"><time>2023-02-18T11:40:33.750</time></trkpt><trkpt lat="56.2763954" lon="44.0163494"><time>2023-02-18T11:40:35.717</time></trkpt><trkpt lat="56.2764011" lon="44.0164715"><time>2023-02-18T11:40:37.717</time></trkpt><trkpt lat="56.2763988" lon="44.0165948"><time>2023-02-18T11:40:39.710</time></trkpt><trkpt lat="56.2763975" lon="44.0167116"><time>2023-02-18T11:40:41.710</time></trkpt><trkpt lat="56.2763871" lon="44.0168202"><time>2023-02-18T11:40:43.717</time></trkpt><trkpt lat="56.2763920" lon="44.0169201"><time>2023-02-18T11:40:45.773</time></trkpt><trkpt lat="56.2764235" lon="44.0170053"><time>2023-02-18T11:40:47.777</time></trkpt><trkpt lat="56.2764553" lon="44.0170854"><time>2023-02-18T11:40:49.710</time></trkpt><trkpt lat="56.2764920" lon="44.0171620"><time>2023-02-18T11:40:51.717</time></trkpt><trkpt lat="56.2765216" lon="44.0172592"><time>2023-02-18T11:40:53.733</time></trkpt><trkpt lat="56.2765445" lon="44.0173749"><time>2023-02-18T11:40:55.713</time></trkpt><trkpt lat="56.2765768" lon="44.0174707"><time>2023-02-18T11:40:57.773</time></trkpt><trkpt lat="56.2766227" lon="44.0175325"><time>2023-02-18T11:40:59.717</time></trkpt><trkpt lat="56.2766757" lon="44.0175792"><time>2023-02-18T11:41:01.717</time></trkpt><trkpt lat="56.2767302" lon="44.0176164"><time>2023-02-18T11:41:03.717</time></trkpt><trkpt lat="56.2767858" lon="44.0176555"><time>2023-02-18T11:41:05.720</time></trkpt><trkpt lat="56.2768438" lon="44.0176919"><time>2023-02-18T11:41:07.707</time></trkpt><trkpt lat="56.2768977" lon="44.0177258"><time>2023-02-18T11:41:09.803</time></trkpt><trkpt lat="56.2769515" lon="44.0177443"><time>2023-02-18T11:41:11.770</time></trkpt><trkpt lat="56.2770063" lon="44.0177929"><time>2023-02-18T11:41:13.773</time></trkpt><trkpt lat="56.2770601" lon="44.0178290"><time>2023-02-18T11:41:15.707</time></trkpt><trkpt lat="56.2771017" lon="44.0178864"><time>2023-02-18T11:41:17.703</time></trkpt><trkpt lat="56.2771460" lon="44.0179589"><time>2023-02-18T11:41:19.710</time></trkpt><trkpt lat="56.2771930" lon="44.0180145"><time>2023-02-18T11:41:21.717</time></trkpt><trkpt lat="56.2772529" lon="44.0180695"><time>2023-02-18T11:41:23.720</time></trkpt><trkpt lat="56.2773106" lon="44.0180936"><time>2023-02-18T11:41:25.710</time></trkpt><trkpt lat="56.2773685" lon="44.0181325"><time>2023-02-18T11:41:27.707</time></trkpt><trkpt lat="56.2774229" lon="44.0181926"><time>2023-02-18T11:41:29.710</time></trkpt><trkpt lat="56.2774667" lon="44.0182637"><time>2023-02-18T11:41:31.707</time></trkpt><trkpt lat="56.2775014" lon="44.0183468"><time>2023-02-18T11:41:33.707</time></trkpt><trkpt lat="56.2775365" lon="44.0184288"><time>2023-02-18T11:41:35.720</time></trkpt><trkpt lat="56.2775688" lon="44.0185151"><time>2023-02-18T11:41:37.720</time></trkpt><trkpt lat="56.2776025" lon="44.0185930"><time>2023-02-18T11:41:39.717</time></trkpt><trkpt lat="56.2776294" lon="44.0186865"><time>2023-02-18T11:41:41.713</time></trkpt><trkpt lat="56.2776571" lon="44.0187717"><time>2023-02-18T11:41:43.717</time></trkpt><trkpt lat="56.2776886" lon="44.0188493"><time>2023-02-18T11:41:45.713</time></trkpt><trkpt lat="56.2777081" lon="44.0189395"><time>2023-02-18T11:41:47.723</time></trkpt><trkpt lat="56.2777101" lon="44.0190505"><time>2023-02-18T11:41:49.803</time></trkpt><trkpt lat="56.2777053" lon="44.0191637"><time>2023-02-18T11:41:51.783</time></trkpt><trkpt lat="56.2777040" lon="44.0192798"><time>2023-02-18T11:41:53.717</time></trkpt><trkpt lat="56.2777109" lon="44.0193925"><time>2023-02-18T11:41:55.717</time></trkpt><trkpt lat="56.2777281" lon="44.0194989"><time>2023-02-18T11:41:57.720</time></trkpt><trkpt lat="56.2777535" lon="44.0196031"><time>2023-02-18T11:41:59.707</time></trkpt><trkpt lat="56.2777767" lon="44.0197132"><time>2023-02-18T11:42:01.713</time></trkpt><trkpt lat="56.2777930" lon="44.0198269"><time>2023-02-18T11:42:03.703</time></trkpt><trkpt lat="56.2778015" lon="44.0199506"><time>2023-02-18T11:42:05.730</time></trkpt><trkpt lat="56.2778037" lon="44.0200718"><time>2023-02-18T11:42:07.707</time></trkpt><trkpt lat="56.2778072" lon="44.0201835"><time>2023-02-18T11:42:09.710</time></trkpt><trkpt lat="56.2778101" lon="44.0202946"><time>2023-02-18T11:42:11.710</time></trkpt><trkpt lat="56.2778153" lon="44.0204082"><time>2023-02-18T11:42:13.710</time></trkpt><trkpt lat="56.2778252" lon="44.0205150"><time>2023-02-18T11:42:15.703</time></trkpt><trkpt lat="56.2778142" lon="44.0206204"><time>2023-02-18T11:42:17.727</time></trkpt><trkpt lat="56.2778181" lon="44.0207278"><time>2023-02-18T11:42:19.717</time></trkpt><trkpt lat="56.2778505" lon="44.0208319"><time>2023-02-18T11:42:21.707</time></trkpt><trkpt lat="56.2778870" lon="44.0209458"><time>2023-02-18T11:42:23.717</time></trkpt><trkpt lat="56.2779261" lon="44.0210553"><time>2023-02-18T11:42:25.710</time></trkpt><trkpt lat="56.2779683" lon="44.0211388"><time>2023-02-18T11:42:27.727</time></trkpt><trkpt lat="56.2780116" lon="44.0212085"><time>2023-02-18T11:42:29.710</time></trkpt><trkpt lat="56.2780559" lon="44.0212788"><time>2023-02-18T11:42:31.713</time></trkpt><trkpt lat="56.2781019" lon="44.0213551"><time>2023-02-18T11:42:33.713</time></trkpt><trkpt lat="56.2781493" lon="44.0214221"><time>2023-02-18T11:42:35.787</time></trkpt><trkpt lat="56.2782013" lon="44.0214822"><time>2023-02-18T11:42:37.747</time></trkpt><trkpt lat="56.2782587" lon="44.0215388"><time>2023-02-18T11:42:39.720</time></trkpt><trkpt lat="56.2783071" lon="44.0216228"><time>2023-02-18T11:42:41.783</time></trkpt><trkpt lat="56.2783543" lon="44.0217059"><time>2023-02-18T11:42:43.780</time></trkpt><trkpt lat="56.2784021" lon="44.0217878"><time>2023-02-18T11:42:45.797</time></trkpt><trkpt lat="56.2784531" lon="44.0218686"><time>2023-02-18T11:42:47.757</time></trkpt><trkpt lat="56.2784949" lon="44.0219531"><time>2023-02-18T11:42:49.763</time></trkpt><trkpt lat="56.2785372" lon="44.0220432"><time>2023-02-18T11:42:51.737</time></trkpt><trkpt lat="56.2785867" lon="44.0221198"><time>2023-02-18T11:42:53.710</time></trkpt><trkpt lat="56.2786355" lon="44.0221956"><time>2023-02-18T11:42:55.710</time></trkpt><trkpt lat="56.2786909" lon="44.0222632"><time>2023-02-18T11:42:57.717</time></trkpt><trkpt lat="56.2787465" lon="44.0223463"><time>2023-02-18T11:42:59.720</time></trkpt><trkpt lat="56.2787984" lon="44.0224286"><time>2023-02-18T11:43:01.710</time></trkpt><trkpt lat="56.2788471" lon="44.0225105"><time>2023-02-18T11:43:03.793</time></trkpt><trkpt lat="56.2788987" lon="44.0225940"><time>2023-02-18T11:43:05.710</time></trkpt><trkpt lat="56.2789532" lon="44.0226695"><time>2023-02-18T11:43:07.703</time></trkpt><trkpt lat="56.2790057" lon="44.0227457"><time>2023-02-18T11:43:09.707</time></trkpt><trkpt lat="56.2790561" lon="44.0228206"><time>2023-02-18T11:43:11.710</time></trkpt><trkpt lat="56.2791053" lon="44.0229014"><time>2023-02-18T11:43:13.707</time></trkpt><trkpt lat="56.2791576" lon="44.0229819"><time>2023-02-18T11:43:15.703</time></trkpt><trkpt lat="56.2792084" lon="44.0230596"><time>2023-02-18T11:43:17.797</time></trkpt><trkpt lat="56.2792638" lon="44.0231279"><time>2023-02-18T11:43:19.783</time></trkpt><trkpt lat="56.2793165" lon="44.0232021"><time>2023-02-18T11:43:21.717</time></trkpt><trkpt lat="56.2793663" lon="44.0232806"><time>2023-02-18T11:43:23.710</time></trkpt><trkpt lat="56.2794117" lon="44.0233752"><time>2023-02-18T11:43:25.717</time></trkpt><trkpt lat="56.2794334" lon="44.0234896"><time>2023-02-18T11:43:27.720</time></trkpt><trkpt lat="56.2794197" lon="44.0236108"><time>2023-02-18T11:43:29.717</time></trkpt><trkpt lat="56.2793911" lon="44.0237244"><time>2023-02-18T11:43:31.707</time></trkpt><trkpt lat="56.2793569" lon="44.0238303"><time>2023-02-18T11:43:33.720</time></trkpt><trkpt lat="56.2793167" lon="44.0239264"><time>2023-02-18T11:43:35.720</time></trkpt><trkpt lat="56.2792791" lon="44.0240243"><time>2023-02-18T11:43:37.713</time></trkpt><trkpt lat="56.2792648" lon="44.0241441"><time>2023-02-18T11:43:39.703</time></trkpt><trkpt lat="56.2792915" lon="44.0242674"><time>2023-02-18T11:43:41.713</time></trkpt><trkpt lat="56.2793398" lon="44.0243723"><time>2023-02-18T11:43:43.757</time></trkpt><trkpt lat="56.2793874" lon="44.0244654"><time>2023-02-18T11:43:45.713</time></trkpt><trkpt lat="56.2794368" lon="44.0245624"><time>2023-02-18T11:43:47.713</time></trkpt><trkpt lat="56.2794901" lon="44.0246498"><time>2023-02-18T11:43:49.717</time></trkpt><trkpt lat="56.2795404" lon="44.0247324"><time>2023-02-18T11:43:51.713</time></trkpt><trkpt lat="56.2795828" lon="44.0248310"><time>2023-02-18T11:43:53.713</time></trkpt><trkpt lat="56.2796204" lon="44.0249324"><time>2023-02-18T11:43:55.727</time></trkpt><trkpt lat="56.2796543" lon="44.0250371"><time>2023-02-18T11:43:57.710</time></trkpt><trkpt lat="56.2796937" lon="44.0251439"><time>2023-02-18T11:43:59.727</time></trkpt><trkpt lat="56.2797305" lon="44.0252578"><time>2023-02-18T11:44:01.713</time></trkpt><trkpt lat="56.2797670" lon="44.0253636"><time>2023-02-18T11:44:03.713</time></trkpt><trkpt lat="56.2798072" lon="44.0254715"><time>2023-02-18T11:44:05.717</time></trkpt><trkpt lat="56.2798502" lon="44.0255734"><time>2023-02-18T11:44:07.713</time></trkpt><trkpt lat="56.2798917" lon="44.0256786"><time>2023-02-18T11:44:09.717</time></trkpt><trkpt lat="56.2799337" lon="44.0257771"><time>2023-02-18T11:44:11.717</time></trkpt><trkpt lat="56.2799708" lon="44.0258814"><time>2023-02-18T11:44:13.717</time></trkpt><trkpt lat="56.2800065" lon="44.0259714"><time>2023-02-18T11:44:15.717</time></trkpt><trkpt lat="56.2800435" lon="44.0260723"><time>2023-02-18T11:44:17.700</time></trkpt><trkpt lat="56.2800760" lon="44.0261820"><time>2023-02-18T11:44:19.710</time></trkpt><trkpt lat="56.2801077" lon="44.0262904"><time>2023-02-18T11:44:21.707</time></trkpt><trkpt lat="56.2801469" lon="44.0263943"><time>2023-02-18T11:44:23.803</time></trkpt><trkpt lat="56.2801983" lon="44.0264720"><time>2023-02-18T11:44:25.713</time></trkpt><trkpt lat="56.2802570" lon="44.0265383"><time>2023-02-18T11:44:27.717</time></trkpt><trkpt lat="56.2803132" lon="44.0266090"><time>2023-02-18T11:44:29.717</time></trkpt><trkpt lat="56.2803638" lon="44.0266949"><time>2023-02-18T11:44:31.717</time></trkpt><trkpt lat="56.2804052" lon="44.0267895"><time>2023-02-18T11:44:33.717</time></trkpt><trkpt lat="56.2804265" lon="44.0268994"><time>2023-02-18T11:44:35.720</time></trkpt><trkpt lat="56.2804370" lon="44.0270224"><time>2023-02-18T11:44:37.720</time></trkpt><trkpt lat="56.2804430" lon="44.0271541"><time>2023-02-18T11:44:39.717</time></trkpt><trkpt lat="56.2804438" lon="44.0272801"><time>2023-02-18T11:44:41.717</time></trkpt><trkpt lat="56.2804323" lon="44.0274049"><time>2023-02-18T11:44:43.717</time></trkpt><trkpt lat="56.2804259" lon="44.0275278"><time>2023-02-18T11:44:45.717</time></trkpt><trkpt lat="56.2804211" lon="44.0276551"><time>2023-02-18T11:44:47.717</time></trkpt><trkpt lat="56.2804404" lon="44.0277741"><time>2023-02-18T11:44:49.777</time></trkpt><trkpt lat="56.2804796" lon="44.0278795"><time>2023-02-18T11:44:51.800</time></trkpt><trkpt lat="56.2805273" lon="44.0279710"><time>2023-02-18T11:44:53.710</time></trkpt><trkpt lat="56.2805781" lon="44.0280622"><time>2023-02-18T11:44:55.710</time></trkpt><trkpt lat="56.2806289" lon="44.0281450"><time>2023-02-18T11:44:57.710</time></trkpt><trkpt lat="56.2806713" lon="44.0282339"><time>2023-02-18T11:44:59.720</time></trkpt><trkpt lat="56.2807176" lon="44.0283183"><time>2023-02-18T11:45:01.717</time></trkpt><trkpt lat="56.2807550" lon="44.0284134"><time>2023-02-18T11:45:03.780</time></trkpt><trkpt lat="56.2807874" lon="44.0285185"><time>2023-02-18T11:45:05.710</time></trkpt><trkpt lat="56.2808340" lon="44.0286115"><time>2023-02-18T11:45:07.710</time></trkpt><trkpt lat="56.2808793" lon="44.0287133"><time>2023-02-18T11:45:09.707</time></trkpt><trkpt lat="56.2809174" lon="44.0288150"><time>2023-02-18T11:45:11.713</time></trkpt><trkpt lat="56.2809604" lon="44.0289059"><time>2023-02-18T11:45:13.710</time></trkpt><trkpt lat="56.2810099" lon="44.0289877"><time>2023-02-18T11:45:15.710</time></trkpt><trkpt lat="56.2810457" lon="44.0290788"><time>2023-02-18T11:45:17.723</time></trkpt><trkpt lat="56.2810663" lon="44.0291724"><time>2023-02-18T11:45:19.720</time></trkpt><trkpt lat="56.2811087" lon="44.0292401"><time>2023-02-18T11:45:21.717</time></trkpt><trkpt lat="56.2811545" lon="44.0292656"><time>2023-02-18T11:45:23.717</time></trkpt><trkpt lat="56.2812045" lon="44.0292874"><time>2023-02-18T11:45:25.727</time></trkpt><trkpt lat="56.2812692" lon="44.0293221"><time>2023-02-18T11:45:28.717</time></trkpt><trkpt lat="56.2813363" lon="44.0293623"><time>2023-02-18T11:45:31.730</time></trkpt><trkpt lat="56.2813817" lon="44.0293952"><time>2023-02-18T11:45:33.737</time></trkpt><trkpt lat="56.2814253" lon="44.0294258"><time>2023-02-18T11:45:35.717</time></trkpt><trkpt lat="56.2814849" lon="44.0294560"><time>2023-02-18T11:45:38.807</time></trkpt><trkpt lat="56.2815387" lon="44.0294977"><time>2023-02-18T11:45:41.753</time></trkpt><trkpt lat="56.2815911" lon="44.0295232"><time>2023-02-18T11:45:44.763</time></trkpt><trkpt lat="56.2816343" lon="44.0295510"><time>2023-02-18T11:45:46.763</time></trkpt><trkpt lat="56.2816934" lon="44.0295908"><time>2023-02-18T11:45:49.760</time></trkpt><trkpt lat="56.2817467" lon="44.0296264"><time>2023-02-18T11:45:52.717</time></trkpt><trkpt lat="56.2817977" lon="44.0296547"><time>2023-02-18T11:45:55.713</time></trkpt><trkpt lat="56.2818478" lon="44.0296828"><time>2023-02-18T11:45:58.753</time></trkpt><trkpt lat="56.2819066" lon="44.0297212"><time>2023-02-18T11:46:02.713</time></trkpt><trkpt lat="56.2819575" lon="44.0297548"><time>2023-02-18T11:46:05.717</time></trkpt><trkpt lat="56.2820160" lon="44.0297931"><time>2023-02-18T11:46:09.747</time></trkpt><trkpt lat="56.2820656" lon="44.0298183"><time>2023-02-18T11:46:12.710</time></trkpt><trkpt lat="56.2821086" lon="44.0298447"><time>2023-02-18T11:46:14.777</time></trkpt><trkpt lat="56.2821579" lon="44.0298774"><time>2023-02-18T11:46:17.753</time></trkpt><trkpt lat="56.2822145" lon="44.0299028"><time>2023-02-18T11:46:20.710</time></trkpt><trkpt lat="56.2822691" lon="44.0299259"><time>2023-02-18T11:46:23.813</time></trkpt><trkpt lat="56.2822866" lon="44.0299354"><time>2023-02-18T11:46:24.753</time></trkpt><trkpt lat="56.2823430" lon="44.0299813"><time>2023-02-18T11:46:27.720</time></trkpt><trkpt lat="56.2823955" lon="44.0300096"><time>2023-02-18T11:46:30.717</time></trkpt><trkpt lat="56.2824523" lon="44.0300459"><time>2023-02-18T11:46:33.707</time></trkpt><trkpt lat="56.2825061" lon="44.0300842"><time>2023-02-18T11:46:36.717</time></trkpt><trkpt lat="56.2825594" lon="44.0301038"><time>2023-02-18T11:46:39.723</time></trkpt><trkpt lat="56.2826119" lon="44.0301405"><time>2023-02-18T11:46:42.710</time></trkpt><trkpt lat="56.2826610" lon="44.0301632"><time>2023-02-18T11:46:45.707</time></trkpt><trkpt lat="56.2827141" lon="44.0301586"><time>2023-02-18T11:46:48.710</time></trkpt><trkpt lat="56.2827520" lon="44.0301150"><time>2023-02-18T11:46:50.717</time></trkpt><trkpt lat="56.2827936" lon="44.0300690"><time>2023-02-18T11:46:52.723</time></trkpt><trkpt lat="56.2828381" lon="44.0300146"><time>2023-02-18T11:46:54.717</time></trkpt><trkpt lat="56.2828984" lon="44.0299612"><time>2023-02-18T11:46:57.783</time></trkpt><trkpt lat="56.2829482" lon="44.0299330"><time>2023-02-18T11:46:59.707</time></trkpt><trkpt lat="56.2829952" lon="44.0298885"><time>2023-02-18T11:47:01.707</time></trkpt><trkpt lat="56.2830433" lon="44.0298495"><time>2023-02-18T11:47:03.717</time></trkpt><trkpt lat="56.2830963" lon="44.0298130"><time>2023-02-18T11:47:05.780</time></trkpt><trkpt lat="56.2831588" lon="44.0297926"><time>2023-02-18T11:47:07.710</time></trkpt><trkpt lat="56.2832157" lon="44.0297668"><time>2023-02-18T11:47:09.717</time></trkpt><trkpt lat="56.2832724" lon="44.0297412"><time>2023-02-18T11:47:11.710</time></trkpt><trkpt lat="56.2833256" lon="44.0297257"><time>2023-02-18T11:47:13.720</time></trkpt><trkpt lat="56.2833478" lon="44.0297202"><time>2023-02-18T11:47:14.710</time></trkpt><trkpt lat="56.2834033" lon="44.0296983"><time>2023-02-18T11:47:16.707</time></trkpt><trkpt lat="56.2834585" lon="44.0296449"><time>2023-02-18T11:47:18.700</time></trkpt><trkpt lat="56.2835006" lon="44.0295695"><time>2023-02-18T11:47:20.723</time></trkpt><trkpt lat="56.2835375" lon="44.0294893"><time>2023-02-18T11:47:22.730</time></trkpt><trkpt lat="56.2835709" lon="44.0294114"><time>2023-02-18T11:47:24.757</time></trkpt><trkpt lat="56.2835916" lon="44.0293263"><time>2023-02-18T11:47:26.717</time></trkpt><trkpt lat="56.2836076" lon="44.0292292"><time>2023-02-18T11:47:28.710</time></trkpt><trkpt lat="56.2836241" lon="44.0291297"><time>2023-02-18T11:47:30.710</time></trkpt><trkpt lat="56.2836410" lon="44.0290365"><time>2023-02-18T11:47:32.717</time></trkpt><trkpt lat="56.2836502" lon="44.0289870"><time>2023-02-18T11:47:33.717</time></trkpt><trkpt lat="56.2836655" lon="44.0289060"><time>2023-02-18T11:47:35.713</time></trkpt><trkpt lat="56.2836925" lon="44.0287881"><time>2023-02-18T11:47:38.707</time></trkpt><trkpt lat="56.2837150" lon="44.0286925"><time>2023-02-18T11:47:40.713</time></trkpt><trkpt lat="56.2837418" lon="44.0285984"><time>2023-02-18T11:47:42.707</time></trkpt><trkpt lat="56.2837683" lon="44.0284977"><time>2023-02-18T11:47:44.710</time></trkpt><trkpt lat="56.2837683" lon="44.0284977"><time>2023-02-18T11:47:44.740</time></trkpt><trkpt lat="56.2837738" lon="44.0283998"><time>2023-02-18T11:47:46.713</time></trkpt><trkpt lat="56.2837682" lon="44.0283542"><time>2023-02-18T11:47:47.710</time></trkpt><trkpt lat="56.2837525" lon="44.0282613"><time>2023-02-18T11:47:49.707</time></trkpt><trkpt lat="56.2837319" lon="44.0281724"><time>2023-02-18T11:47:51.717</time></trkpt><trkpt lat="56.2837064" lon="44.0280715"><time>2023-02-18T11:47:53.707</time></trkpt><trkpt lat="56.2836818" lon="44.0279508"><time>2023-02-18T11:47:55.760</time></trkpt><trkpt lat="56.2836596" lon="44.0278289"><time>2023-02-18T11:47:57.713</time></trkpt><trkpt lat="56.2836342" lon="44.0277112"><time>2023-02-18T11:47:59.727</time></trkpt><trkpt lat="56.2836240" lon="44.0276411"><time>2023-02-18T11:48:00.857</time></trkpt><trkpt lat="56.2836028" lon="44.0275314"><time>2023-02-18T11:48:02.713</time></trkpt><trkpt lat="56.2835748" lon="44.0274121"><time>2023-02-18T11:48:04.797</time></trkpt><trkpt lat="56.2835532" lon="44.0272955"><time>2023-02-18T11:48:06.740</time></trkpt><trkpt lat="56.2835268" lon="44.0271799"><time>2023-02-18T11:48:08.790</time></trkpt><trkpt lat="56.2835025" lon="44.0270803"><time>2023-02-18T11:48:10.767</time></trkpt><trkpt lat="56.2834880" lon="44.0269653"><time>2023-02-18T11:48:12.707</time></trkpt><trkpt lat="56.2834689" lon="44.0268654"><time>2023-02-18T11:48:14.703</time></trkpt><trkpt lat="56.2834451" lon="44.0267637"><time>2023-02-18T11:48:16.713</time></trkpt><trkpt lat="56.2834265" lon="44.0266788"><time>2023-02-18T11:48:18.770</time></trkpt><trkpt lat="56.2834147" lon="44.0265844"><time>2023-02-18T11:48:20.780</time></trkpt><trkpt lat="56.2833949" lon="44.0265023"><time>2023-02-18T11:48:22.713</time></trkpt><trkpt lat="56.2833697" lon="44.0264215"><time>2023-02-18T11:48:24.707</time></trkpt><trkpt lat="56.2833453" lon="44.0263439"><time>2023-02-18T11:48:26.717</time></trkpt><trkpt lat="56.2833192" lon="44.0262301"><time>2023-02-18T11:48:28.727</time></trkpt><trkpt lat="56.2833080" lon="44.0261793"><time>2023-02-18T11:48:29.707</time></trkpt><trkpt lat="56.2832774" lon="44.0260477"><time>2023-02-18T11:48:31.710</time></trkpt><trkpt lat="56.2832566" lon="44.0259698"><time>2023-02-18T11:48:32.710</time></trkpt><trkpt lat="56.2832286" lon="44.0258399"><time>2023-02-18T11:48:34.703</time></trkpt><trkpt lat="56.2832117" lon="44.0257264"><time>2023-02-18T11:48:36.713</time></trkpt><trkpt lat="56.2831946" lon="44.0256272"><time>2023-02-18T11:48:38.707</time></trkpt><trkpt lat="56.2831686" lon="44.0255422"><time>2023-02-18T11:48:40.713</time></trkpt><trkpt lat="56.2831412" lon="44.0254705"><time>2023-02-18T11:48:42.717</time></trkpt><trkpt lat="56.2831208" lon="44.0253847"><time>2023-02-18T11:48:43.710</time></trkpt><trkpt lat="56.2831001" lon="44.0253097"><time>2023-02-18T11:48:45.717</time></trkpt><trkpt lat="56.2830739" lon="44.0252305"><time>2023-02-18T11:48:48.717</time></trkpt><trkpt lat="56.2830368" lon="44.0250974"><time>2023-02-18T11:48:51.720</time></trkpt><trkpt lat="56.2830091" lon="44.0250226"><time>2023-02-18T11:48:53.717</time></trkpt><trkpt lat="56.2829903" lon="44.0249384"><time>2023-02-18T11:48:55.727</time></trkpt><trkpt lat="56.2829903" lon="44.0249384"><time>2023-02-18T11:48:55.753</time></trkpt><trkpt lat="56.2829790" lon="44.0248597"><time>2023-02-18T11:48:57.737</time></trkpt><trkpt lat="56.2829779" lon="44.0247882"><time>2023-02-18T11:48:58.717</time></trkpt><trkpt lat="56.2830032" lon="44.0246782"><time>2023-02-18T11:49:00.720</time></trkpt><trkpt lat="56.2830527" lon="44.0245639"><time>2023-02-18T11:49:02.717</time></trkpt><trkpt lat="56.2830929" lon="44.0244732"><time>2023-02-18T11:49:04.717</time></trkpt><trkpt lat="56.2831393" lon="44.0244035"><time>2023-02-18T11:49:06.717</time></trkpt><trkpt lat="56.2831848" lon="44.0243294"><time>2023-02-18T11:49:08.703</time></trkpt><trkpt lat="56.2832230" lon="44.0242359"><time>2023-02-18T11:49:10.710</time></trkpt><trkpt lat="56.2832331" lon="44.0241148"><time>2023-02-18T11:49:12.707</time></trkpt><trkpt lat="56.2832322" lon="44.0240102"><time>2023-02-18T11:49:14.710</time></trkpt><trkpt lat="56.2832449" lon="44.0238958"><time>2023-02-18T11:49:16.707</time></trkpt><trkpt lat="56.2832932" lon="44.0238310"><time>2023-02-18T11:49:18.707</time></trkpt><trkpt lat="56.2833385" lon="44.0237767"><time>2023-02-18T11:49:20.703</time></trkpt><trkpt lat="56.2833820" lon="44.0237277"><time>2023-02-18T11:49:22.713</time></trkpt><trkpt lat="56.2834265" lon="44.0236984"><time>2023-02-18T11:49:24.707</time></trkpt><trkpt lat="56.2834889" lon="44.0237198"><time>2023-02-18T11:49:27.757</time></trkpt><trkpt lat="56.2835367" lon="44.0237167"><time>2023-02-18T11:49:29.710</time></trkpt><trkpt lat="56.2835975" lon="44.0237287"><time>2023-02-18T11:49:32.707</time></trkpt><trkpt lat="56.2836560" lon="44.0237430"><time>2023-02-18T11:49:35.707</time></trkpt><trkpt lat="56.2837163" lon="44.0237756"><time>2023-02-18T11:49:38.707</time></trkpt><trkpt lat="56.2837746" lon="44.0238129"><time>2023-02-18T11:49:41.707</time></trkpt><trkpt lat="56.2838163" lon="44.0238450"><time>2023-02-18T11:49:43.800</time></trkpt><trkpt lat="56.2838666" lon="44.0238826"><time>2023-02-18T11:49:45.723</time></trkpt><trkpt lat="56.2839166" lon="44.0239359"><time>2023-02-18T11:49:47.777</time></trkpt><trkpt lat="56.2839620" lon="44.0239772"><time>2023-02-18T11:49:49.787</time></trkpt><trkpt lat="56.2840316" lon="44.0240099"><time>2023-02-18T11:49:52.717</time></trkpt><trkpt lat="56.2840802" lon="44.0240089"><time>2023-02-18T11:49:54.703</time></trkpt><trkpt lat="56.2841252" lon="44.0240143"><time>2023-02-18T11:49:56.707</time></trkpt><trkpt lat="56.2841782" lon="44.0240044"><time>2023-02-18T11:49:58.710</time></trkpt><trkpt lat="56.2842263" lon="44.0240120"><time>2023-02-18T11:50:00.707</time></trkpt><trkpt lat="56.2842750" lon="44.0239992"><time>2023-02-18T11:50:02.713</time></trkpt><trkpt lat="56.2843217" lon="44.0239825"><time>2023-02-18T11:50:04.707</time></trkpt><trkpt lat="56.2843709" lon="44.0239735"><time>2023-02-18T11:50:06.717</time></trkpt><trkpt lat="56.2844294" lon="44.0239713"><time>2023-02-18T11:50:08.747</time></trkpt><trkpt lat="56.2844840" lon="44.0239581"><time>2023-02-18T11:50:10.707</time></trkpt><trkpt lat="56.2845358" lon="44.0239564"><time>2023-02-18T11:50:12.707</time></trkpt><trkpt lat="56.2845906" lon="44.0239495"><time>2023-02-18T11:50:14.707</time></trkpt><trkpt lat="56.2846430" lon="44.0239319"><time>2023-02-18T11:50:16.707</time></trkpt><trkpt lat="56.2846953" lon="44.0239255"><time>2023-02-18T11:50:18.707</time></trkpt><trkpt lat="56.2847399" lon="44.0239533"><time>2023-02-18T11:50:20.707</time></trkpt><trkpt lat="56.2847842" lon="44.0239907"><time>2023-02-18T11:50:22.700</time></trkpt><trkpt lat="56.2848340" lon="44.0240175"><time>2023-02-18T11:50:24.707</time></trkpt><trkpt lat="56.2848864" lon="44.0240235"><time>2023-02-18T11:50:26.707</time></trkpt><trkpt lat="56.2849341" lon="44.0240227"><time>2023-02-18T11:50:28.707</time></trkpt><trkpt lat="56.2850009" lon="44.0240346"><time>2023-02-18T11:50:31.710</time></trkpt><trkpt lat="56.2850508" lon="44.0240546"><time>2023-02-18T11:50:33.710</time></trkpt><trkpt lat="56.2850997" lon="44.0240614"><time>2023-02-18T11:50:35.710</time></trkpt><trkpt lat="56.2851461" lon="44.0240900"><time>2023-02-18T11:50:37.743</time></trkpt><trkpt lat="56.2852010" lon="44.0240943"><time>2023-02-18T11:50:39.780</time></trkpt><trkpt lat="56.2852493" lon="44.0241201"><time>2023-02-18T11:50:41.703</time></trkpt><trkpt lat="56.2853025" lon="44.0241459"><time>2023-02-18T11:50:43.707</time></trkpt><trkpt lat="56.2853627" lon="44.0241680"><time>2023-02-18T11:50:46.767</time></trkpt><trkpt lat="56.2854114" lon="44.0241876"><time>2023-02-18T11:50:48.800</time></trkpt><trkpt lat="56.2854784" lon="44.0242231"><time>2023-02-18T11:50:51.707</time></trkpt><trkpt lat="56.2855256" lon="44.0242566"><time>2023-02-18T11:50:53.710</time></trkpt><trkpt lat="56.2855775" lon="44.0243119"><time>2023-02-18T11:50:55.710</time></trkpt><trkpt lat="56.2856225" lon="44.0243758"><time>2023-02-18T11:50:57.757</time></trkpt><trkpt lat="56.2856729" lon="44.0244228"><time>2023-02-18T11:51:00.720</time></trkpt><trkpt lat="56.2857160" lon="44.0244505"><time>2023-02-18T11:51:02.713</time></trkpt><trkpt lat="56.2857560" lon="44.0244953"><time>2023-02-18T11:51:04.737</time></trkpt><trkpt lat="56.2858059" lon="44.0245333"><time>2023-02-18T11:51:07.743</time></trkpt><trkpt lat="56.2858585" lon="44.0245877"><time>2023-02-18T11:51:10.720</time></trkpt><trkpt lat="56.2858977" lon="44.0246282"><time>2023-02-18T11:51:12.713</time></trkpt><trkpt lat="56.2859501" lon="44.0246751"><time>2023-02-18T11:51:16.710</time></trkpt><trkpt lat="56.2859937" lon="44.0247533"><time>2023-02-18T11:51:20.710</time></trkpt><trkpt lat="56.2860297" lon="44.0248217"><time>2023-02-18T11:51:24.710</time></trkpt><trkpt lat="56.2860541" lon="44.0248938"><time>2023-02-18T11:51:28.717</time></trkpt><trkpt lat="56.2860815" lon="44.0249614"><time>2023-02-18T11:51:32.710</time></trkpt><trkpt lat="56.2861116" lon="44.0250315"><time>2023-02-18T11:51:36.773</time></trkpt><trkpt lat="56.2861537" lon="44.0250961"><time>2023-02-18T11:51:40.720</time></trkpt><trkpt lat="56.2862077" lon="44.0251479"><time>2023-02-18T11:51:43.710</time></trkpt><trkpt lat="56.2862483" lon="44.0251960"><time>2023-02-18T11:51:45.707</time></trkpt><trkpt lat="56.2862939" lon="44.0252429"><time>2023-02-18T11:51:47.707</time></trkpt><trkpt lat="56.2863346" lon="44.0252935"><time>2023-02-18T11:51:49.710</time></trkpt><trkpt lat="56.2863734" lon="44.0253447"><time>2023-02-18T11:51:51.703</time></trkpt><trkpt lat="56.2864126" lon="44.0254015"><time>2023-02-18T11:51:53.770</time></trkpt><trkpt lat="56.2864678" lon="44.0254786"><time>2023-02-18T11:51:56.717</time></trkpt><trkpt lat="56.2865074" lon="44.0255327"><time>2023-02-18T11:51:58.717</time></trkpt><trkpt lat="56.2865566" lon="44.0255876"><time>2023-02-18T11:52:00.720</time></trkpt><trkpt lat="56.2866020" lon="44.0256464"><time>2023-02-18T11:52:02.717</time></trkpt><trkpt lat="56.2866503" lon="44.0256969"><time>2023-02-18T11:52:04.713</time></trkpt><trkpt lat="56.2866991" lon="44.0257410"><time>2023-02-18T11:52:06.720</time></trkpt><trkpt lat="56.2867442" lon="44.0257999"><time>2023-02-18T11:52:08.807</time></trkpt><trkpt lat="56.2867956" lon="44.0258693"><time>2023-02-18T11:52:10.710</time></trkpt><trkpt lat="56.2868525" lon="44.0259065"><time>2023-02-18T11:52:12.733</time></trkpt><trkpt lat="56.2869092" lon="44.0259439"><time>2023-02-18T11:52:14.713</time></trkpt><trkpt lat="56.2869650" lon="44.0259878"><time>2023-02-18T11:52:16.717</time></trkpt><trkpt lat="56.2870166" lon="44.0260423"><time>2023-02-18T11:52:18.717</time></trkpt><trkpt lat="56.2870767" lon="44.0260906"><time>2023-02-18T11:52:20.713</time></trkpt><trkpt lat="56.2871357" lon="44.0261323"><time>2023-02-18T11:52:22.713</time></trkpt><trkpt lat="56.2871945" lon="44.0261853"><time>2023-02-18T11:52:24.720</time></trkpt><trkpt lat="56.2872512" lon="44.0262470"><time>2023-02-18T11:52:26.730</time></trkpt><trkpt lat="56.2872857" lon="44.0262666"><time>2023-02-18T11:52:27.723</time></trkpt><trkpt lat="56.2873488" lon="44.0263028"><time>2023-02-18T11:52:29.717</time></trkpt><trkpt lat="56.2874130" lon="44.0263158"><time>2023-02-18T11:52:31.720</time></trkpt><trkpt lat="56.2874778" lon="44.0263037"><time>2023-02-18T11:52:33.717</time></trkpt><trkpt lat="56.2875526" lon="44.0262932"><time>2023-02-18T11:52:35.720</time></trkpt><trkpt lat="56.2876234" lon="44.0262777"><time>2023-02-18T11:52:37.717</time></trkpt><trkpt lat="56.2876956" lon="44.0262790"><time>2023-02-18T11:52:39.717</time></trkpt><trkpt lat="56.2877690" lon="44.0263105"><time>2023-02-18T11:52:41.717</time></trkpt><trkpt lat="56.2878409" lon="44.0263377"><time>2023-02-18T11:52:43.717</time></trkpt><trkpt lat="56.2879083" lon="44.0263838"><time>2023-02-18T11:52:45.717</time></trkpt><trkpt lat="56.2879819" lon="44.0264330"><time>2023-02-18T11:52:47.713</time></trkpt><trkpt lat="56.2880559" lon="44.0264586"><time>2023-02-18T11:52:49.717</time></trkpt><trkpt lat="56.2881343" lon="44.0264679"><time>2023-02-18T11:52:51.720</time></trkpt><trkpt lat="56.2881756" lon="44.0264699"><time>2023-02-18T11:52:52.710</time></trkpt><trkpt lat="56.2882558" lon="44.0264815"><time>2023-02-18T11:52:54.707</time></trkpt><trkpt lat="56.2883322" lon="44.0264978"><time>2023-02-18T11:52:56.720</time></trkpt><trkpt lat="56.2884024" lon="44.0265056"><time>2023-02-18T11:52:58.720</time></trkpt><trkpt lat="56.2884841" lon="44.0264895"><time>2023-02-18T11:53:00.717</time></trkpt><trkpt lat="56.2885707" lon="44.0265066"><time>2023-02-18T11:53:02.720</time></trkpt><trkpt lat="56.2886531" lon="44.0265374"><time>2023-02-18T11:53:04.727</time></trkpt><trkpt lat="56.2886912" lon="44.0265539"><time>2023-02-18T11:53:05.717</time></trkpt><trkpt lat="56.2887554" lon="44.0266202"><time>2023-02-18T11:53:07.720</time></trkpt><trkpt lat="56.2888144" lon="44.0266937"><time>2023-02-18T11:53:09.710</time></trkpt><trkpt lat="56.2888602" lon="44.0267898"><time>2023-02-18T11:53:11.717</time></trkpt><trkpt lat="56.2889067" lon="44.0268902"><time>2023-02-18T11:53:13.723</time></trkpt><trkpt lat="56.2889067" lon="44.0268902"><time>2023-02-18T11:53:13.753</time></trkpt><trkpt lat="56.2889563" lon="44.0269975"><time>2023-02-18T11:53:15.717</time></trkpt><trkpt lat="56.2889888" lon="44.0270526"><time>2023-02-18T11:53:16.710</time></trkpt><trkpt lat="56.2890472" lon="44.0271453"><time>2023-02-18T11:53:18.710</time></trkpt><trkpt lat="56.2891232" lon="44.0271960"><time>2023-02-18T11:53:20.710</time></trkpt><trkpt lat="56.2891987" lon="44.0272363"><time>2023-02-18T11:53:22.713</time></trkpt><trkpt lat="56.2892707" lon="44.0272654"><time>2023-02-18T11:53:24.720</time></trkpt><trkpt lat="56.2893175" lon="44.0271868"><time>2023-02-18T11:53:26.767</time></trkpt><trkpt lat="56.2893212" lon="44.0270680"><time>2023-02-18T11:53:28.773</time></trkpt><trkpt lat="56.2893204" lon="44.0269390"><time>2023-02-18T11:53:30.717</time></trkpt><trkpt lat="56.2893168" lon="44.0268120"><time>2023-02-18T11:53:32.717</time></trkpt><trkpt lat="56.2893142" lon="44.0266911"><time>2023-02-18T11:53:34.717</time></trkpt><trkpt lat="56.2893122" lon="44.0265674"><time>2023-02-18T11:53:36.720</time></trkpt><trkpt lat="56.2893068" lon="44.0264447"><time>2023-02-18T11:53:38.710</time></trkpt><trkpt lat="56.2893035" lon="44.0263192"><time>2023-02-18T11:53:40.720</time></trkpt><trkpt lat="56.2892986" lon="44.0261904"><time>2023-02-18T11:53:42.723</time></trkpt><trkpt lat="56.2892997" lon="44.0260647"><time>2023-02-18T11:53:44.710</time></trkpt><trkpt lat="56.2893013" lon="44.0259413"><time>2023-02-18T11:53:46.717</time></trkpt><trkpt lat="56.2892892" lon="44.0258176"><time>2023-02-18T11:53:48.737</time></trkpt><trkpt lat="56.2892802" lon="44.0256880"><time>2023-02-18T11:53:50.717</time></trkpt><trkpt lat="56.2892640" lon="44.0255662"><time>2023-02-18T11:53:52.753</time></trkpt><trkpt lat="56.2892609" lon="44.0254406"><time>2023-02-18T11:53:54.710</time></trkpt><trkpt lat="56.2892645" lon="44.0253158"><time>2023-02-18T11:53:56.717</time></trkpt><trkpt lat="56.2892703" lon="44.0251873"><time>2023-02-18T11:53:58.707</time></trkpt><trkpt lat="56.2892767" lon="44.0250641"><time>2023-02-18T11:54:00.720</time></trkpt><trkpt lat="56.2892769" lon="44.0249372"><time>2023-02-18T11:54:02.790</time></trkpt><trkpt lat="56.2892820" lon="44.0248103"><time>2023-02-18T11:54:04.783</time></trkpt><trkpt lat="56.2892833" lon="44.0246918"><time>2023-02-18T11:54:06.720</time></trkpt><trkpt lat="56.2892755" lon="44.0245643"><time>2023-02-18T11:54:08.713</time></trkpt><trkpt lat="56.2892656" lon="44.0244433"><time>2023-02-18T11:54:10.773</time></trkpt><trkpt lat="56.2892638" lon="44.0243205"><time>2023-02-18T11:54:12.780</time></trkpt><trkpt lat="56.2892631" lon="44.0241999"><time>2023-02-18T11:54:14.767</time></trkpt><trkpt lat="56.2892612" lon="44.0240875"><time>2023-02-18T11:54:16.760</time></trkpt><trkpt lat="56.2892604" lon="44.0239715"><time>2023-02-18T11:54:18.737</time></trkpt><trkpt lat="56.2892552" lon="44.0238617"><time>2023-02-18T11:54:20.720</time></trkpt><trkpt lat="56.2892503" lon="44.0237506"><time>2023-02-18T11:54:22.707</time></trkpt><trkpt lat="56.2892491" lon="44.0236329"><time>2023-02-18T11:54:24.770</time></trkpt><trkpt lat="56.2892497" lon="44.0235230"><time>2023-02-18T11:54:26.767</time></trkpt><trkpt lat="56.2892493" lon="44.0234104"><time>2023-02-18T11:54:28.737</time></trkpt><trkpt lat="56.2892555" lon="44.0232988"><time>2023-02-18T11:54:30.777</time></trkpt><trkpt lat="56.2892538" lon="44.0231841"><time>2023-02-18T11:54:32.750</time></trkpt><trkpt lat="56.2892479" lon="44.0230713"><time>2023-02-18T11:54:34.753</time></trkpt><trkpt lat="56.2892347" lon="44.0229603"><time>2023-02-18T11:54:36.757</time></trkpt><trkpt lat="56.2892172" lon="44.0228562"><time>2023-02-18T11:54:38.760</time></trkpt><trkpt lat="56.2891963" lon="44.0227534"><time>2023-02-18T11:54:40.753</time></trkpt><trkpt lat="56.2891670" lon="44.0226586"><time>2023-02-18T11:54:42.777</time></trkpt><trkpt lat="56.2891383" lon="44.0225635"><time>2023-02-18T11:54:44.740</time></trkpt><trkpt lat="56.2891088" lon="44.0224675"><time>2023-02-18T11:54:46.747</time></trkpt><trkpt lat="56.2890823" lon="44.0223618"><time>2023-02-18T11:54:48.740</time></trkpt><trkpt lat="56.2890511" lon="44.0222683"><time>2023-02-18T11:54:50.747</time></trkpt><trkpt lat="56.2890273" lon="44.0221656"><time>2023-02-18T11:54:52.723</time></trkpt><trkpt lat="56.2889941" lon="44.0220700"><time>2023-02-18T11:54:54.723</time></trkpt><trkpt lat="56.2889776" lon="44.0219646"><time>2023-02-18T11:54:56.717</time></trkpt><trkpt lat="56.2889776" lon="44.0218660"><time>2023-02-18T11:54:58.730</time></trkpt><trkpt lat="56.2889728" lon="44.0217590"><time>2023-02-18T11:55:00.727</time></trkpt><trkpt lat="56.2889656" lon="44.0216595"><time>2023-02-18T11:55:02.733</time></trkpt><trkpt lat="56.2889626" lon="44.0215547"><time>2023-02-18T11:55:04.717</time></trkpt><trkpt lat="56.2889508" lon="44.0214545"><time>2023-02-18T11:55:06.790</time></trkpt><trkpt lat="56.2889488" lon="44.0213478"><time>2023-02-18T11:55:08.743</time></trkpt><trkpt lat="56.2889437" lon="44.0212313"><time>2023-02-18T11:55:10.780</time></trkpt><trkpt lat="56.2889355" lon="44.0211318"><time>2023-02-18T11:55:12.750</time></trkpt><trkpt lat="56.2889294" lon="44.0210299"><time>2023-02-18T11:55:14.797</time></trkpt><trkpt lat="56.2889279" lon="44.0209294"><time>2023-02-18T11:55:16.780</time></trkpt><trkpt lat="56.2889223" lon="44.0208304"><time>2023-02-18T11:55:18.797</time></trkpt><trkpt lat="56.2889206" lon="44.0207305"><time>2023-02-18T11:55:20.743</time></trkpt><trkpt lat="56.2889214" lon="44.0206225"><time>2023-02-18T11:55:22.713</time></trkpt><trkpt lat="56.2889233" lon="44.0205140"><time>2023-02-18T11:55:24.720</time></trkpt><trkpt lat="56.2889249" lon="44.0204059"><time>2023-02-18T11:55:26.720</time></trkpt><trkpt lat="56.2889299" lon="44.0203048"><time>2023-02-18T11:55:28.713</time></trkpt><trkpt lat="56.2889367" lon="44.0201989"><time>2023-02-18T11:55:30.717</time></trkpt><trkpt lat="56.2889435" lon="44.0200900"><time>2023-02-18T11:55:32.713</time></trkpt><trkpt lat="56.2889535" lon="44.0199808"><time>2023-02-18T11:55:34.713</time></trkpt><trkpt lat="56.2889657" lon="44.0198640"><time>2023-02-18T11:55:36.720</time></trkpt><trkpt lat="56.2889743" lon="44.0197531"><time>2023-02-18T11:55:38.783</time></trkpt><trkpt lat="56.2889867" lon="44.0196372"><time>2023-02-18T11:55:40.783</time></trkpt><trkpt lat="56.2889951" lon="44.0195255"><time>2023-02-18T11:55:42.757</time></trkpt><trkpt lat="56.2890097" lon="44.0194110"><time>2023-02-18T11:55:44.777</time></trkpt><trkpt lat="56.2890130" lon="44.0193555"><time>2023-02-18T11:55:45.780</time></trkpt><trkpt lat="56.2890172" lon="44.0192420"><time>2023-02-18T11:55:47.717</time></trkpt><trkpt lat="56.2890298" lon="44.0191228"><time>2023-02-18T11:55:49.763</time></trkpt><trkpt lat="56.2890530" lon="44.0190058"><time>2023-02-18T11:55:51.783</time></trkpt><trkpt lat="56.2890692" lon="44.0188928"><time>2023-02-18T11:55:53.720</time></trkpt><trkpt lat="56.2890852" lon="44.0187845"><time>2023-02-18T11:55:55.723</time></trkpt><trkpt lat="56.2890868" lon="44.0186716"><time>2023-02-18T11:55:57.713</time></trkpt><trkpt lat="56.2890963" lon="44.0185575"><time>2023-02-18T11:55:59.713</time></trkpt><trkpt lat="56.2891091" lon="44.0184427"><time>2023-02-18T11:56:01.760</time></trkpt><trkpt lat="56.2891215" lon="44.0183204"><time>2023-02-18T11:56:03.740</time></trkpt><trkpt lat="56.2891421" lon="44.0182032"><time>2023-02-18T11:56:05.737</time></trkpt><trkpt lat="56.2891583" lon="44.0180799"><time>2023-02-18T11:56:07.723</time></trkpt><trkpt lat="56.2891733" lon="44.0179558"><time>2023-02-18T11:56:09.717</time></trkpt><trkpt lat="56.2891963" lon="44.0178299"><time>2023-02-18T11:56:11.717</time></trkpt><trkpt lat="56.2892032" lon="44.0177680"><time>2023-02-18T11:56:12.720</time></trkpt><trkpt lat="56.2892125" lon="44.0176371"><time>2023-02-18T11:56:14.727</time></trkpt><trkpt lat="56.2892395" lon="44.0175101"><time>2023-02-18T11:56:16.723</time></trkpt><trkpt lat="56.2892684" lon="44.0173975"><time>2023-02-18T11:56:18.723</time></trkpt><trkpt lat="56.2892996" lon="44.0172786"><time>2023-02-18T11:56:20.713</time></trkpt><trkpt lat="56.2893430" lon="44.0171650"><time>2023-02-18T11:56:22.717</time></trkpt><trkpt lat="56.2893901" lon="44.0170608"><time>2023-02-18T11:56:24.723</time></trkpt><trkpt lat="56.2894621" lon="44.0169840"><time>2023-02-18T11:56:25.867</time></trkpt><trkpt lat="56.2894995" lon="44.0169116"><time>2023-02-18T11:56:26.697</time></trkpt><trkpt lat="56.2895463" lon="44.0168279"><time>2023-02-18T11:56:28.717</time></trkpt><trkpt lat="56.2895856" lon="44.0167745"><time>2023-02-18T11:56:29.740</time></trkpt><trkpt lat="56.2896352" lon="44.0166657"><time>2023-02-18T11:56:31.717</time></trkpt><trkpt lat="56.2896822" lon="44.0165697"><time>2023-02-18T11:56:33.737</time></trkpt><trkpt lat="56.2897316" lon="44.0164837"><time>2023-02-18T11:56:35.733</time></trkpt><trkpt lat="56.2897713" lon="44.0164148"><time>2023-02-18T11:56:37.770</time></trkpt><trkpt lat="56.2898112" lon="44.0163497"><time>2023-02-18T11:56:41.727</time></trkpt><trkpt lat="56.2897576" lon="44.0163710"><time>2023-02-18T11:56:49.727</time></trkpt><trkpt lat="56.2897172" lon="44.0164194"><time>2023-02-18T11:56:53.733</time></trkpt></trkseg></trk></gpx>